createdAt,value
2023-05-22T00:44:34.095Z,0
2023-05-22T01:04:30.565Z,0
2023-05-22T01:09:27.156Z,0
2023-05-22T01:14:27.452Z,0
2023-05-22T01:19:27.599Z,0
2023-05-22T01:24:27.917Z,0
2023-05-22T01:29:24.427Z,0
2023-05-22T01:34:24.992Z,0
2023-05-22T01:39:23.629Z,0
2023-05-22T01:44:23.375Z,0
2023-05-22T01:49:20.818Z,0
2023-05-22T01:54:20.441Z,0
2023-05-22T02:09:17.547Z,0
2023-05-22T02:14:17.246Z,0
2023-05-22T02:19:17.172Z,0
2023-05-22T02:24:16.896Z,0
2023-05-22T02:29:14.156Z,0
2023-05-22T02:34:13.913Z,0
2023-05-22T02:39:14.187Z,0
2023-05-22T02:44:13.775Z,0
2023-05-22T02:49:11.720Z,0
2023-05-22T02:54:11.960Z,0
2023-05-22T03:01:04.740Z,0
2023-05-22T03:05:30.783Z,0
2023-05-22T03:10:30.470Z,0
2023-05-22T03:15:29.635Z,0
2023-05-22T03:20:29.221Z,0
2023-05-22T03:25:28.429Z,0
2023-05-22T03:30:28.138Z,0
2023-05-22T03:35:28.467Z,0
2023-05-22T03:40:27.860Z,0
2023-05-22T03:45:29.055Z,0
2023-05-22T03:50:25.602Z,0
2023-05-22T03:55:25.519Z,0
2023-05-22T04:24:42.870Z,0.02
2023-05-22T05:04:34.983Z,0.06
2023-05-22T05:09:33.872Z,0.06
2023-05-22T05:14:33.795Z,0.07
2023-05-22T05:19:35.419Z,0.07
2023-05-22T05:24:33.657Z,0.08
2023-05-22T05:29:34.973Z,0.08
2023-05-22T05:34:31.441Z,0.09
2023-05-22T05:39:31.904Z,0.09
2023-05-22T05:44:30.840Z,0.1
2023-05-22T05:49:30.477Z,0.11
2023-05-22T05:54:28.085Z,0.11
2023-05-22T06:01:15.195Z,0.12
2023-05-22T06:05:59.213Z,0.13
2023-05-22T06:10:59.155Z,0.13
2023-05-22T06:16:01.270Z,0.14
2023-05-22T06:21:00.820Z,0.15
2023-05-22T06:25:57.594Z,0.15
2023-05-22T06:31:10.637Z,0.16
2023-05-22T06:40:56.188Z,0.19
2023-05-22T06:45:55.786Z,0.2
2023-05-22T06:50:56.065Z,0.21
2023-05-22T06:55:43.545Z,0.21
2023-05-22T07:10:02.735Z,0.32
2023-05-22T07:25:01.431Z,0.37
2023-05-22T07:34:59.351Z,0.28
2023-05-22T07:39:59.935Z,0.31
2023-05-22T07:49:57.025Z,0.31
2023-05-22T07:54:58.323Z,0.43
2023-05-22T08:04:55.583Z,0.54
2023-05-22T08:09:55.275Z,0.41
2023-05-22T08:14:42.847Z,0.5
2023-05-22T08:19:42.913Z,0.6
2023-05-22T08:24:43.335Z,0.44
2023-05-22T08:29:42.844Z,0.44
2023-05-22T08:34:42.527Z,0.66
2023-05-22T08:39:42.372Z,0.49
2023-05-22T08:44:42.141Z,0.45
2023-05-22T08:49:41.690Z,0.46
2023-05-22T08:54:42.985Z,0.56
2023-05-22T08:59:38.963Z,0.73
2023-05-22T09:04:39.313Z,0.68
2023-05-22T09:09:38.830Z,0.69
2023-05-22T09:14:38.740Z,0.51
2023-05-22T09:19:37.399Z,0.81
2023-05-22T09:24:37.150Z,0.8
2023-05-22T09:29:36.825Z,0.81
2023-05-22T09:34:38.216Z,0.74
2023-05-22T09:39:35.255Z,0.83
2023-05-22T09:44:34.729Z,0.76
2023-05-22T09:49:37.218Z,0.65
2023-05-22T09:54:34.057Z,0.6
2023-05-22T10:01:19.105Z,0.68
2023-05-22T10:05:52.712Z,0.73
2023-05-22T10:10:52.157Z,0.55
2023-05-22T10:15:51.280Z,0.57
2023-05-22T10:21:01.405Z,0.93
2023-05-22T10:26:03.681Z,0.71
2023-05-22T10:31:02.785Z,0.7
2023-05-22T10:35:59.837Z,0.73
2023-05-22T10:40:59.596Z,0.98
2023-05-22T10:45:59.854Z,0.96
2023-05-22T10:50:59.820Z,0.96
2023-05-22T10:55:57.752Z,0.96
2023-05-22T11:00:07.057Z,0.96
2023-05-22T11:05:05.247Z,0.95
2023-05-22T11:10:04.758Z,0.96
2023-05-22T11:15:04.945Z,0.95
2023-05-22T11:25:03.814Z,0.96
2023-05-22T11:30:04.003Z,0.95
2023-05-22T11:35:04.272Z,0.95
2023-05-22T11:40:03.668Z,0.96
2023-05-22T11:45:04.219Z,0.99
2023-05-22T11:54:59.973Z,0.94
2023-05-22T12:24:55.096Z,0.94
2023-05-22T12:29:56.461Z,0.91
2023-05-22T12:44:42.428Z,0.91
2023-05-22T13:29:37.531Z,0.58
2023-05-22T14:04:30.709Z,0.41
2023-05-22T14:09:30.081Z,0.49
2023-05-22T14:14:27.753Z,0.48
2023-05-22T14:19:28.401Z,0.4
2023-05-22T14:24:27.224Z,0.46
2023-05-22T14:29:26.989Z,0.38
2023-05-22T14:34:24.441Z,0.36
2023-05-22T14:39:24.219Z,0.35
2023-05-22T14:44:23.474Z,0.36
2023-05-22T14:49:23.710Z,0.35
2023-05-22T14:54:23.215Z,0.42
2023-05-22T15:01:08.510Z,0.46
2023-05-22T15:05:43.350Z,0.3
2023-05-22T15:10:44.956Z,0.29
2023-05-22T15:15:40.961Z,0.27
2023-05-22T15:20:41.042Z,0.24
2023-05-22T15:25:39.947Z,0.2
2023-05-22T15:30:41.892Z,0.17
2023-05-22T15:35:36.945Z,0.16
2023-05-22T15:40:36.171Z,0.15
2023-05-22T15:50:37.206Z,0.15
2023-05-22T15:55:33.586Z,0.14
2023-05-22T16:00:04.915Z,0.13
2023-05-22T16:05:03.982Z,0.09
2023-05-22T16:10:04.252Z,0.07
2023-05-22T16:15:02.851Z,0.07
2023-05-22T16:20:01.072Z,0.09
2023-05-22T16:25:00.267Z,0.08
2023-05-22T16:29:59.496Z,0.02
2023-05-22T16:34:59.032Z,0.03
2023-05-22T16:45:06.873Z,0.06
2023-05-22T16:49:57.586Z,0.06
2023-05-22T16:54:58.167Z,0.06
2023-05-22T18:01:19.235Z,0.02
2023-05-22T18:50:57.193Z,0
2023-05-22T19:00:11.278Z,0
2023-05-22T19:05:26.827Z,0
2023-05-22T19:10:08.157Z,0
2023-05-22T19:15:06.637Z,0
2023-05-22T19:20:06.207Z,0
2023-05-22T19:25:05.174Z,0
2023-05-22T19:30:04.622Z,0
2023-05-22T19:35:04.850Z,0
2023-05-22T19:45:04.768Z,0
2023-05-22T19:55:01.605Z,0
2023-05-22T20:19:58.935Z,0
2023-05-22T20:59:42.239Z,0
2023-05-22T22:04:33.186Z,0
2023-05-22T22:14:28.858Z,0
2023-05-22T22:19:29.477Z,0
2023-05-22T22:24:28.067Z,0
2023-05-22T22:29:27.840Z,0
2023-05-22T22:34:27.786Z,0
2023-05-22T22:39:27.222Z,0
2023-05-22T22:44:28.331Z,0
2023-05-22T22:49:24.761Z,0
2023-05-22T22:54:25.182Z,0
2023-05-22T23:01:10.667Z,0
2023-05-22T23:05:44.609Z,0
2023-05-22T23:10:44.347Z,0
2023-05-22T23:15:43.723Z,0
2023-05-22T23:20:43.168Z,0
2023-05-22T23:25:40.727Z,0
2023-05-22T23:30:40.463Z,0
2023-05-22T23:35:40.303Z,0
2023-05-22T23:40:39.787Z,0
2023-05-22T23:45:38.991Z,0
2023-05-22T23:50:38.898Z,0
2023-05-22T23:55:38.497Z,0
